Time;durP1;ratioP1;P1;durP2;ratioP2;P2;SDS_P1;SDS_P2;PMS_P1;PMS_P2;Temp;Humidity;BMP_temperature;BMP_pressure;BME280_temperature;BME280_humidity;BME280_pressure;Samples;Min_cycle;Max_cycle;Signal;HPM_P1;HPM_P2
2021/06/05 00:01:39;;;;;;;;;;;;;;;17.58;58.03;101072.39;104534;1095;76822;-59
2021/06/05 00:03:44;;;;;;;;;;;;;;;17.55;57.86;101070.12;104560;1096;78039;-59
2021/06/05 00:05:56;;;;;;;;;;;;;;;17.51;58.15;101066.95;104517;1095;77910;-59
2021/06/05 00:08:06;;;;;;;;;;;;;;;17.50;57.89;101069.88;104484;1094;77938;-59
2021/06/05 00:10:17;;;;;;;;;;;;;;;17.50;57.82;101080.80;104540;1096;76773;-66
2021/06/05 00:12:26;;;;;;;;;;;;;;;17.53;57.36;101085.84;104502;1096;77203;-65
2021/06/05 00:14:34;;;;;;;;;;;;;;;17.54;57.86;101087.56;104523;1096;76768;-65
2021/06/05 00:16:43;;;;;;;;;;;;;;;17.51;58.49;101075.14;104504;1096;77344;-65
2021/06/05 00:18:49;;;;;;;;;;;;;;;17.50;58.72;101083.53;104538;1096;77450;-65
2021/06/05 00:20:54;;;;;;;;;;;;;;;17.48;59.09;101085.66;104490;1094;77171;-60
2021/06/05 00:23:01;;;;;;;;;;;;;;;17.42;59.65;101081.05;104526;1093;77129;-59
2021/06/05 00:25:10;;;;;;;;;;;;;;;17.35;60.07;101088.45;104501;1093;77121;-59
2021/06/05 00:27:16;;;;;;;;;;;;;;;17.29;60.33;101083.85;104511;1093;76897;-65
2021/06/05 00:29:22;;;;;;;;;;;;;;;17.20;60.96;101087.87;104504;1093;78482;-65
2021/06/05 00:31:27;;;;;;;;;;;;;;;17.17;61.23;101085.59;104524;1093;78093;-59
2021/06/05 00:33:34;;;;;;;;;;;;;;;17.16;61.45;101090.22;104508;1093;78665;-58
2021/06/05 00:35:40;;;;;;;;;;;;;;;17.07;61.90;101088.77;104496;1093;78114;-59
2021/06/05 00:37:45;;;;;;;;;;;;;;;16.93;62.99;101084.39;104459;1092;78255;-65
2021/06/05 00:39:51;;;;;;;;;;;;;;;16.82;63.38;101079.59;104508;1093;78728;-66
2021/06/05 00:41:59;;;;;;;;;;;;;;;16.67;63.75;101058.02;104498;1093;77198;-65
2021/06/05 00:44:07;;;;;;;;;;;;;;;16.62;63.77;101060.53;104520;1093;76947;-66
2021/06/05 00:46:14;;;;;;;;;;;;;;;16.58;64.20;101051.11;104539;1092;76881;-65
2021/06/05 00:48:20;;;;;;;;;;;;;;;16.52;64.93;101041.85;104544;1093;77627;-66
2021/06/05 00:50:28;;;;;;;;;;;;;;;16.44;65.23;101038.50;104504;1093;77925;-66
2021/06/05 00:52:36;;;;;;;;;;;;;;;16.38;65.48;101039.34;104544;1093;76833;-59
2021/06/05 00:54:44;;;;;;;;;;;;;;;16.36;65.85;101041.45;104518;1093;77587;-59
2021/06/05 00:56:53;;;;;;;;;;;;;;;16.32;66.41;101043.75;104538;1093;77322;-59
2021/06/05 00:58:58;;;;;;;;;;;;;;;16.29;66.49;101037.88;104522;1093;78259;-59
2021/06/05 01:01:09;;;;;;;;;;;;;;;16.27;66.89;101042.70;104521;1093;76611;-59
2021/06/05 01:03:17;;;;;;;;;;;;;;;16.26;67.03;101030.14;104499;1093;78059;-59
2021/06/05 01:05:23;;;;;;;;;;;;;;;16.32;66.86;101034.73;104477;1093;78451;-59
2021/06/05 01:07:30;;;;;;;;;;;;;;;16.34;67.18;101038.92;104521;1093;77885;-59
2021/06/05 01:09:46;;;;;;;;;;;;;;;16.33;67.43;101044.59;104491;1093;78013;-59
2021/06/05 01:11:56;;;;;;;;;;;;;;;16.26;67.47;101036.41;104491;1093;76847;-59
2021/06/05 01:14:05;;;;;;;;;;;;;;;16.29;67.71;101041.45;104499;1093;77487;-59
2021/06/05 01:16:17;;;;;;;;;;;;;;;16.24;67.50;101046.70;104541;1093;77843;-66
2021/06/05 01:18:28;;;;;;;;;;;;;;;16.19;67.85;101041.04;104504;1093;78131;-67
2021/06/05 01:20:40;;;;;;;;;;;;;;;16.13;68.08;101035.58;104505;1093;77578;-67
2021/06/05 01:23:01;;;;;;;;;;;;;;;16.06;68.31;101032.88;104521;1093;77071;-66
2021/06/05 01:25:26;;;;;;;;;;;;;;;16.04;68.86;101031.41;104552;1093;77129;-67
2021/06/05 01:27:34;;;;;;;;;;;;;;;16.06;69.00;101023.84;104485;1093;78124;-67
2021/06/05 01:29:43;;;;;;;;;;;;;;;16.05;69.09;101016.70;104503;1097;78222;-66
2021/06/05 01:31:51;;;;;;;;;;;;;;;16.04;69.00;101004.97;104477;1091;77483;-59
2021/06/05 01:33:57;;;;;;;;;;;;;;;16.07;68.91;100993.64;104502;1093;77475;-58
2021/06/05 01:36:03;;;;;;;;;;;;;;;16.13;68.75;100995.53;104521;1097;78067;-60
2021/06/05 01:38:10;;;;;;;;;;;;;;;16.19;68.40;100994.70;104549;1093;77193;-59
2021/06/05 01:40:17;;;;;;;;;;;;;;;16.23;68.51;100998.69;104491;1093;77643;-59
2021/06/05 01:42:28;;;;;;;;;;;;;;;16.31;68.36;100992.17;104507;1093;77843;-59
2021/06/05 01:44:34;;;;;;;;;;;;;;;16.35;68.25;100996.13;104506;1093;78248;-60
2021/06/05 01:46:42;;;;;;;;;;;;;;;16.33;68.11;100993.63;104521;1095;77901;-59
2021/06/05 01:48:52;;;;;;;;;;;;;;;16.37;67.92;100994.05;104507;1097;77734;-59
2021/06/05 01:51:02;;;;;;;;;;;;;;;16.33;68.36;101000.97;104527;1093;77659;-59
2021/06/05 01:53:11;;;;;;;;;;;;;;;16.27;67.99;100990.91;104504;1097;78193;-59
2021/06/05 01:55:19;;;;;;;;;;;;;;;16.24;68.51;100992.17;104521;1095;76986;-59
2021/06/05 01:57:29;;;;;;;;;;;;;;;16.21;68.71;100992.59;104531;1097;77809;-59
2021/06/05 01:59:34;;;;;;;;;;;;;;;16.14;69.09;100991.77;104489;1097;78069;-59
2021/06/05 02:01:40;;;;;;;;;;;;;;;16.08;69.30;100983.59;104507;1093;77872;-65
2021/06/05 02:03:45;;;;;;;;;;;;;;;16.08;69.79;100983.59;104498;1095;77574;-65
2021/06/05 02:05:53;;;;;;;;;;;;;;;16.08;69.56;100984.43;104503;1091;77584;-65
2021/06/05 02:07:59;;;;;;;;;;;;;;;16.11;69.67;100977.72;104514;1093;77380;-66
2021/06/05 02:10:09;;;;;;;;;;;;;;;16.11;69.84;100988.62;104536;1093;78446;-66
2021/06/05 02:12:22;;;;;;;;;;;;;;;16.07;69.88;100982.74;104525;1093;77783;-59
2021/06/05 02:14:34;;;;;;;;;;;;;;;16.04;69.77;100983.16;104505;1093;78108;-59
2021/06/05 02:16:43;;;;;;;;;;;;;;;16.05;69.79;100986.73;104475;1097;77913;-59
2021/06/05 02:18:53;;;;;;;;;;;;;;;16.01;69.99;100985.49;104517;1096;77472;-59
2021/06/05 02:21:01;;;;;;;;;;;;;;;16.00;69.86;100981.92;104550;1093;76555;-65
2021/06/05 02:23:22;;;;;;;;;;;;;;;16.03;69.81;100986.11;104522;1097;77818;-65
2021/06/05 02:25:29;;;;;;;;;;;;;;;16.04;69.94;100990.52;104499;1093;78293;-65
2021/06/05 02:27:34;;;;;;;;;;;;;;;16.04;70.34;100979.63;104525;1093;78536;-65
2021/06/05 02:29:41;;;;;;;;;;;;;;;16.05;70.51;100984.00;104489;1097;78073;-66
2021/06/05 02:31:49;;;;;;;;;;;;;;;16.03;70.61;100984.23;104453;1096;77259;-59
2021/06/05 02:33:54;;;;;;;;;;;;;;;16.02;70.92;100985.27;104500;1097;79124;-59
2021/06/05 02:36:02;;;;;;;;;;;;;;;16.01;70.88;100980.04;104478;1095;78505;-59
2021/06/05 02:38:08;;;;;;;;;;;;;;;16.02;71.09;100976.24;104498;1093;76639;-59
2021/06/05 02:40:18;;;;;;;;;;;;;;;16.02;71.69;100976.24;104474;1096;76675;-59
2021/06/05 02:42:24;;;;;;;;;;;;;;;16.07;71.38;100973.75;104523;1093;77138;-58
2021/06/05 02:44:31;;;;;;;;;;;;;;;16.09;71.24;100963.47;104504;1093;78451;-59
2021/06/05 02:46:40;;;;;;;;;;;;;;;16.12;71.47;100960.33;104505;1093;76601;-61
2021/06/05 02:48:49;;;;;;;;;;;;;;;16.14;71.14;100961.78;104535;1093;76984;-62
2021/06/05 02:50:57;;;;;;;;;;;;;;;16.15;71.09;100955.27;104559;1093;77816;-61
2021/06/05 02:53:02;;;;;;;;;;;;;;;16.19;70.79;100942.05;104505;1093;76736;-62
2021/06/05 02:55:12;;;;;;;;;;;;;;;16.19;71.22;100937.45;104542;1092;77526;-63
2021/06/05 02:57:17;;;;;;;;;;;;;;;16.20;70.66;100930.95;104531;1093;77080;-59
2021/06/05 02:59:23;;;;;;;;;;;;;;;16.25;70.57;100922.13;104503;1095;76891;-59
2021/06/05 03:01:28;;;;;;;;;;;;;;;16.27;70.68;100917.29;104514;1097;78282;-59
2021/06/05 03:03:34;;;;;;;;;;;;;;;16.30;70.59;100927.77;104515;1093;78381;-59
2021/06/05 03:05:40;;;;;;;;;;;;;;;16.31;70.27;100919.39;104498;1093;77931;-59
2021/06/05 03:07:45;;;;;;;;;;;;;;;16.33;70.19;100917.28;104487;1093;77803;-59
2021/06/05 03:09:53;;;;;;;;;;;;;;;16.36;69.96;100921.47;104498;1096;77396;-59
2021/06/05 03:11:58;;;;;;;;;;;;;;;16.38;69.71;100924.81;104499;1093;77830;-59
2021/06/05 03:14:03;;;;;;;;;;;;;;;16.44;69.55;100932.14;104492;1093;77351;-59
2021/06/05 03:16:10;;;;;;;;;;;;;;;16.47;69.88;100928.98;104495;1093;77830;-64
2021/06/05 03:18:16;;;;;;;;;;;;;;;16.45;70.05;100931.10;104525;1093;76846;-65
2021/06/05 03:20:25;;;;;;;;;;;;;;;16.45;70.00;100944.73;104506;1092;78107;-65
2021/06/05 03:22:30;;;;;;;;;;;;;;;16.52;69.90;100942.81;104547;1093;76904;-59
2021/06/05 03:24:36;;;;;;;;;;;;;;;16.53;70.18;100949.98;104485;1093;77887;-59
2021/06/05 03:26:42;;;;;;;;;;;;;;;16.55;70.30;100953.33;104531;1095;77488;-65
2021/06/05 03:28:50;;;;;;;;;;;;;;;16.57;70.49;100945.77;104505;1093;76682;-65
2021/06/05 03:30:56;;;;;;;;;;;;;;;16.61;70.70;100947.02;104500;1093;76962;-60
2021/06/05 03:33:01;;;;;;;;;;;;;;;16.60;70.73;100945.34;104526;1097;76553;-57
2021/06/05 03:35:09;;;;;;;;;;;;;;;16.63;70.88;100947.64;104481;1093;76882;-58
2021/06/05 03:37:14;;;;;;;;;;;;;;;16.67;70.92;100943.44;104509;1097;77538;-64
2021/06/05 03:39:22;;;;;;;;;;;;;;;16.70;71.13;100947.63;104503;1093;76523;-64
2021/06/05 03:41:28;;;;;;;;;;;;;;;16.78;70.70;100944.65;104502;1093;78392;-64
2021/06/05 03:43:36;;;;;;;;;;;;;;;16.83;71.01;100955.75;104511;1097;77917;-64
2021/06/05 03:45:41;;;;;;;;;;;;;;;16.84;70.91;100947.33;104504;1093;76925;-65
2021/06/05 03:47:50;;;;;;;;;;;;;;;16.87;70.44;100951.52;104504;1093;77518;-65
2021/06/05 03:49:56;;;;;;;;;;;;;;;16.83;70.64;100950.29;104527;1097;76521;-65
2021/06/05 03:52:01;;;;;;;;;;;;;;;16.84;70.47;100947.33;104484;1093;77667;-60
2021/06/05 03:54:07;;;;;;;;;;;;;;;16.86;70.74;100950.70;104542;1093;77684;-60
2021/06/05 03:56:12;;;;;;;;;;;;;;;16.84;71.04;100952.79;104508;1093;77509;-64
2021/06/05 03:58:22;;;;;;;;;;;;;;;16.81;71.21;100958.67;104494;1093;78251;-64
2021/06/05 04:00:31;;;;;;;;;;;;;;;16.76;71.25;100955.77;104532;1093;77889;-66
2021/06/05 04:02:36;;;;;;;;;;;;;;;16.72;71.25;100950.97;104541;1097;77915;-65
2021/06/05 04:04:41;;;;;;;;;;;;;;;16.80;71.05;100959.75;104517;1093;77447;-65
2021/06/05 04:06:47;;;;;;;;;;;;;;;16.82;71.23;100965.82;104514;1097;78950;-58
2021/06/05 04:08:53;;;;;;;;;;;;;;;16.88;71.01;100955.93;104515;1093;77759;-58
2021/06/05 04:10:58;;;;;;;;;;;;;;;16.91;70.85;100953.61;104494;1097;77916;-63
2021/06/05 04:13:04;;;;;;;;;;;;;;;16.94;70.53;100958.64;104503;1095;77712;-64
2021/06/05 04:15:13;;;;;;;;;;;;;;;16.94;70.61;100955.91;104486;1093;78284;-64
2021/06/05 04:17:18;;;;;;;;;;;;;;;16.91;70.31;100948.16;104515;1095;78079;-59
2021/06/05 04:19:23;;;;;;;;;;;;;;;16.91;70.18;100950.89;104516;1093;78054;-58
2021/06/05 04:21:28;;;;;;;;;;;;;;;16.95;70.22;100949.38;104508;1091;78044;-59
2021/06/05 04:23:34;;;;;;;;;;;;;;;16.94;69.85;100950.45;104496;1093;77152;-57
2021/06/05 04:25:40;;;;;;;;;;;;;;;16.97;70.11;100963.67;104512;1093;78346;-58
2021/06/05 04:27:45;;;;;;;;;;;;;;;16.97;70.00;100960.09;104516;1093;77914;-58
2021/06/05 04:29:50;;;;;;;;;;;;;;;16.93;70.05;100967.88;104470;1093;77638;-59
2021/06/05 04:31:55;;;;;;;;;;;;;;;17.00;70.10;100965.94;104506;1093;76683;-59
2021/06/05 04:34:00;;;;;;;;;;;;;;;17.00;70.01;100967.86;104512;1093;78448;-59
2021/06/05 04:36:15;;;;;;;;;;;;;;;16.98;70.15;100959.02;104535;1097;77861;-59
2021/06/05 04:38:23;;;;;;;;;;;;;;;16.97;70.39;100968.28;104502;1097;77787;-59
2021/06/05 04:40:29;;;;;;;;;;;;;;;16.98;70.16;100965.33;104499;1092;77279;-59
2021/06/05 04:42:35;;;;;;;;;;;;;;;17.06;69.96;100970.53;104501;1093;77786;-66
2021/06/05 04:44:40;;;;;;;;;;;;;;;17.11;69.81;100970.71;104468;1093;77498;-65
2021/06/05 04:46:48;;;;;;;;;;;;;;;17.14;70.36;100980.36;104488;1093;78057;-65
2021/06/05 04:48:56;;;;;;;;;;;;;;;17.21;70.37;100980.34;104530;1093;78227;-65
2021/06/05 04:51:01;;;;;;;;;;;;;;;17.32;69.98;100976.91;104511;1093;76607;-60
2021/06/05 04:53:07;;;;;;;;;;;;;;;17.43;70.21;100978.95;104524;1096;78096;-59
2021/06/05 04:55:14;;;;;;;;;;;;;;;17.45;70.37;100977.66;104511;1093;78360;-59
2021/06/05 04:57:20;;;;;;;;;;;;;;;17.44;70.13;100978.71;104522;1093;76922;-59
2021/06/05 04:59:25;;;;;;;;;;;;;;;17.48;70.35;100977.23;104493;1093;77566;-59
2021/06/05 05:01:30;;;;;;;;;;;;;;;17.62;70.51;100986.20;104519;1093;77759;-65
2021/06/05 05:03:35;;;;;;;;;;;;;;;17.85;70.60;100978.27;104547;1093;77121;-65
2021/06/05 05:05:41;;;;;;;;;;;;;;;18.15;70.11;100971.05;104502;1093;77576;-65
2021/06/05 05:07:47;;;;;;;;;;;;;;;18.29;69.82;100972.57;104489;1093;79422;-65
2021/06/05 05:09:52;;;;;;;;;;;;;;;18.37;69.32;100973.36;104490;1097;78349;-65
2021/06/05 05:11:57;;;;;;;;;;;;;;;18.27;69.17;100968.39;104534;1093;77806;-59
2021/06/05 05:14:06;;;;;;;;;;;;;;;18.22;68.72;100971.81;104460;1092;76819;-59
2021/06/05 05:16:12;;;;;;;;;;;;;;;18.12;68.70;100968.77;104488;1093;78150;-66
2021/06/05 05:18:18;;;;;;;;;;;;;;;18.08;68.68;100970.27;104481;1096;77630;-65
2021/06/05 05:20:28;;;;;;;;;;;;;;;17.99;68.65;100968.86;104499;1093;78281;-65
2021/06/05 05:22:36;;;;;;;;;;;;;;;17.86;68.66;100974.45;104504;1097;78261;-59
2021/06/05 05:24:42;;;;;;;;;;;;;;;17.81;68.92;100971.55;104509;1097;77658;-59
2021/06/05 05:26:47;;;;;;;;;;;;;;;17.77;68.74;100974.96;104508;1097;76994;-66
2021/06/05 05:28:54;;;;;;;;;;;;;;;17.76;68.86;100965.08;104504;1097;78864;-65
2021/06/05 05:31:02;;;;;;;;;;;;;;;17.69;68.80;100967.85;104490;1093;77313;-60
2021/06/05 05:33:08;;;;;;;;;;;;;;;17.63;68.69;100982.42;104494;1097;77118;-59
2021/06/05 05:35:16;;;;;;;;;;;;;;;17.55;68.89;100985.42;104512;1096;76986;-58
2021/06/05 05:37:21;;;;;;;;;;;;;;;17.48;68.91;100998.23;104445;1097;77421;-64
2021/06/05 05:39:26;;;;;;;;;;;;;;;17.49;69.12;100994.46;104541;1093;77683;-64
2021/06/05 05:41:31;;;;;;;;;;;;;;;17.55;69.04;100993.63;104502;1093;77776;-64
2021/06/05 05:43:36;;;;;;;;;;;;;;;17.69;69.12;100989.71;104521;1097;77360;-65
2021/06/05 05:45:42;;;;;;;;;;;;;;;17.80;69.32;100985.45;104481;1095;78551;-64
2021/06/05 05:47:50;;;;;;;;;;;;;;;17.88;69.21;100987.91;104499;1097;76930;-64
2021/06/05 05:49:55;;;;;;;;;;;;;;;17.96;69.02;100984.90;104492;1093;78072;-64
2021/06/05 05:52:00;;;;;;;;;;;;;;;18.11;68.62;100986.22;104511;1097;78415;-64
2021/06/05 05:54:06;;;;;;;;;;;;;;;18.26;68.61;100985.88;104510;1097;76787;-65
2021/06/05 05:56:16;;;;;;;;;;;;;;;18.48;68.29;100991.80;104548;1093;78660;-64
2021/06/05 05:58:25;;;;;;;;;;;;;;;18.69;67.91;100988.61;104496;1093;78011;-65
2021/06/05 06:00:32;;;;;;;;;;;;;;;18.84;67.46;101000.84;104502;1097;77848;-64
2021/06/05 06:02:41;;;;;;;;;;;;;;;18.90;66.89;100992.80;104540;1097;77433;-65
2021/06/05 06:04:46;;;;;;;;;;;;;;;19.12;67.09;101000.28;104508;1093;76829;-65
2021/06/05 06:06:51;;;;;;;;;;;;;;;19.14;66.19;101000.91;104499;1094;76667;-64
2021/06/05 06:08:56;;;;;;;;;;;;;;;19.15;65.72;101005.30;104497;1097;78168;-64
2021/06/05 06:11:01;;;;;;;;;;;;;;;19.08;65.24;100999.09;104489;1097;78135;-63
2021/06/05 06:13:07;;;;;;;;;;;;;;;19.14;65.12;100994.59;104497;1097;78526;-62
2021/06/05 06:15:15;;;;;;;;;;;;;;;19.27;65.16;100997.98;104495;1093;77477;-63
2021/06/05 06:17:23;;;;;;;;;;;;;;;19.31;65.23;100996.44;104504;1097;77071;-62
2021/06/05 06:19:29;;;;;;;;;;;;;;;19.47;64.74;100997.75;104499;1096;77816;-62
2021/06/05 06:21:37;;;;;;;;;;;;;;;19.47;64.45;100999.65;104530;1093;76801;-63
2021/06/05 06:23:43;;;;;;;;;;;;;;;19.54;64.54;100994.89;104493;1092;78221;-63
2021/06/05 06:25:52;;;;;;;;;;;;;;;19.59;63.88;100998.60;104494;1093;77718;-66
2021/06/05 06:27:58;;;;;;;;;;;;;;;19.56;64.01;101003.73;104462;1097;76829;-67
2021/06/05 06:30:05;;;;;;;;;;;;;;;19.49;63.93;101002.98;104478;1092;77682;-67
2021/06/05 06:32:10;;;;;;;;;;;;;;;19.48;63.91;100998.56;104541;1097;78445;-64
2021/06/05 06:34:18;;;;;;;;;;;;;;;19.47;64.05;100999.65;104539;1097;77434;-63
2021/06/05 06:36:23;;;;;;;;;;;;;;;19.49;63.93;101002.98;104508;1097;77699;-65
2021/06/05 06:38:32;;;;;;;;;;;;;;;19.50;64.00;100996.45;104501;1096;76861;-65
2021/06/05 06:40:38;;;;;;;;;;;;;;;19.54;64.24;101003.11;104517;1093;77572;-62
2021/06/05 06:42:43;;;;;;;;;;;;;;;19.45;63.50;101001.80;104481;1093;78268;-57
2021/06/05 06:44:48;;;;;;;;;;;;;;;19.50;63.54;101000.03;104484;1093;77328;-57
2021/06/05 06:46:54;;;;;;;;;;;;;;;19.48;63.28;101004.88;104507;1093;77631;-59
2021/06/05 06:49:03;;;;;;;;;;;;;;;19.36;62.90;101004.83;104477;1097;77968;-59
2021/06/05 06:51:08;;;;;;;;;;;;;;;19.31;62.84;101009.33;104493;1097;77307;-66
2021/06/05 06:53:14;;;;;;;;;;;;;;;19.31;62.69;101003.85;104509;1093;76968;-64
2021/06/05 06:55:21;;;;;;;;;;;;;;;19.23;62.71;100996.77;104512;1093;77456;-63
2021/06/05 06:57:27;;;;;;;;;;;;;;;19.20;62.42;101004.63;104489;1093;78348;-63
2021/06/05 06:59:32;;;;;;;;;;;;;;;19.15;62.55;100999.83;104537;1093;77148;-63
2021/06/05 07:01:38;;;;;;;;;;;;;;;19.14;62.55;100995.44;104512;1093;77829;-63
2021/06/05 07:03:43;;;;;;;;;;;;;;;19.01;62.22;100998.31;104512;1093;78243;-63
2021/06/05 07:05:52;;;;;;;;;;;;;;;18.93;62.04;100993.16;104508;1096;77504;-63
2021/06/05 07:08:08;;;;;;;;;;;;;;;18.99;62.18;100988.66;104471;1095;78328;-57
2021/06/05 07:10:16;;;;;;;;;;;;;;;18.87;62.19;100994.06;104567;1097;77394;-57
2021/06/05 07:12:21;;;;;;;;;;;;;;;18.85;62.29;100991.57;104511;1097;76922;-57
2021/06/05 07:14:27;;;;;;;;;;;;;;;18.93;62.34;100982.20;104499;1097;78232;-58
2021/06/05 07:16:33;;;;;;;;;;;;;;;18.90;62.22;100985.39;104492;1092;76646;-58
2021/06/05 07:18:39;;;;;;;;;;;;;;;18.94;61.84;100992.10;104493;1092;77081;-58
2021/06/05 07:20:47;;;;;;;;;;;;;;;18.88;62.03;100992.17;104554;1093;77822;-57
2021/06/05 07:22:54;;;;;;;;;;;;;;;18.83;61.98;100987.39;104528;1093;77310;-56
2021/06/05 07:25:03;;;;;;;;;;;;;;;18.66;61.88;100978.95;104481;1093;78861;-57
2021/06/05 07:27:09;;;;;;;;;;;;;;;18.62;61.95;100977.72;104529;1093;77794;-62
2021/06/05 07:29:14;;;;;;;;;;;;;;;18.56;62.18;100983.28;104515;1093;77061;-63
2021/06/05 07:31:23;;;;;;;;;;;;;;;18.47;61.98;100981.88;104530;1093;77412;-59
2021/06/05 07:33:28;;;;;;;;;;;;;;;18.30;62.02;100987.09;104508;1093;77320;-58
2021/06/05 07:35:33;;;;;;;;;;;;;;;18.23;62.27;100989.06;104505;1093;77568;-59
2021/06/05 07:37:39;;;;;;;;;;;;;;;18.19;62.12;100991.41;104504;1092;77714;-59
2021/06/05 07:39:44;;;;;;;;;;;;;;;18.22;62.30;100990.96;104507;1093;78343;-57
2021/06/05 07:41:49;;;;;;;;;;;;;;;18.21;62.40;100992.01;104521;1092;77804;-57
2021/06/05 07:43:55;;;;;;;;;;;;;;;18.21;62.42;100986.54;104514;1093;76927;-58
2021/06/05 07:46:01;;;;;;;;;;;;;;;18.28;62.71;100989.22;104508;1097;79233;-62
2021/06/05 07:48:07;;;;;;;;;;;;;;;18.27;62.48;100993.85;104489;1095;77907;-61
2021/06/05 07:50:16;;;;;;;;;;;;;;;18.34;62.67;100995.69;104532;1097;77727;-62
2021/06/05 07:52:24;;;;;;;;;;;;;;;18.38;62.67;100994.16;104497;1097;77431;-58
2021/06/05 07:54:29;;;;;;;;;;;;;;;18.42;62.89;100990.77;104490;1093;76782;-57
2021/06/05 07:56:35;;;;;;;;;;;;;;;18.45;62.82;101001.27;104539;1093;76606;-64
2021/06/05 07:58:40;;;;;;;;;;;;;;;18.41;62.76;100991.82;104495;1097;77194;-62
2021/06/05 08:00:45;;;;;;;;;;;;;;;18.42;62.83;100990.77;104522;1093;76861;-62
2021/06/05 08:02:51;;;;;;;;;;;;;;;18.49;62.68;100988.81;104480;1096;77040;-63
2021/06/05 08:04:56;;;;;;;;;;;;;;;18.50;62.82;100997.87;104532;1093;77275;-63
2021/06/05 08:07:01;;;;;;;;;;;;;;;18.51;62.77;100994.08;104501;1095;78010;-58
2021/06/05 08:09:08;;;;;;;;;;;;;;;18.67;62.72;100988.01;104508;1097;76844;-57
2021/06/05 08:11:13;;;;;;;;;;;;;;;18.81;62.66;100981.32;104514;1093;77772;-58
2021/06/05 08:13:18;;;;;;;;;;;;;;;18.97;62.47;100983.44;104524;1091;77917;-58
2021/06/05 08:15:26;;;;;;;;;;;;;;;19.05;62.37;100985.85;104527;1097;76746;-57
2021/06/05 08:17:32;;;;;;;;;;;;;;;19.09;62.27;100976.09;104497;1097;78261;-57
2021/06/05 08:19:37;;;;;;;;;;;;;;;19.18;61.95;100974.72;104500;1093;78434;-57
2021/06/05 08:21:45;;;;;;;;;;;;;;;19.26;61.99;100971.65;104510;1091;77098;-57
2021/06/05 08:23:53;;;;;;;;;;;;;;;19.34;61.65;100978.70;104511;1093;77582;-57
2021/06/05 08:25:59;;;;;;;;;;;;;;;19.38;61.19;100974.47;104519;1093;77641;-58
2021/06/05 08:28:08;;;;;;;;;;;;;;;19.45;61.24;100971.65;104500;1093;78516;-57
2021/06/05 08:30:22;;;;;;;;;;;;;;;19.52;61.08;100975.11;104508;1097;76893;-57
2021/06/05 08:32:28;;;;;;;;;;;;;;;19.58;60.75;100963.22;104482;1095;78083;-63
2021/06/05 08:34:33;;;;;;;;;;;;;;;19.63;60.81;100966.09;104554;1093;77361;-62
2021/06/05 08:36:38;;;;;;;;;;;;;;;19.76;60.88;100963.97;104490;1093;78591;-62
2021/06/05 08:38:44;;;;;;;;;;;;;;;19.83;60.57;100961.94;104497;1095;78208;-63
2021/06/05 08:41:04;;;;;;;;;;;;;;;19.98;60.54;100959.59;104495;1097;77871;-63
2021/06/05 08:43:17;;;;;;;;;;;;;;;20.09;59.97;100966.16;104526;1093;76559;-58
2021/06/05 08:45:27;;;;;;;;;;;;;;;20.19;59.87;100971.06;104535;1093;77226;-58
2021/06/05 08:47:36;;;;;;;;;;;;;;;20.23;59.63;100962.11;104516;1097;77913;-63
2021/06/05 08:49:44;;;;;;;;;;;;;;;20.17;59.07;100960.31;104510;1095;77662;-63
2021/06/05 08:51:58;;;;;;;;;;;;;;;20.15;58.97;100969.86;104536;1097;77659;-58
2021/06/05 08:54:18;;;;;;;;;;;;;;;20.25;58.95;100970.95;104526;1097;77513;-58
2021/06/05 08:56:29;;;;;;;;;;;;;;;20.33;58.77;100967.85;104535;1097;77122;-62
2021/06/05 08:58:39;;;;;;;;;;;;;;;20.36;58.31;100961.89;104487;1097;77711;-63
2021/06/05 09:00:46;;;;;;;;;;;;;;;20.30;58.26;100965.58;104497;1093;77804;-63
2021/06/05 09:03:01;;;;;;;;;;;;;;;20.36;58.19;100961.89;104529;1093;77723;-63
2021/06/05 09:05:09;;;;;;;;;;;;;;;20.36;57.89;100967.38;104519;1093;77774;-63
2021/06/05 09:07:16;;;;;;;;;;;;;;;20.28;57.51;100964.16;104530;1097;77288;-56
2021/06/05 09:09:25;;;;;;;;;;;;;;;20.18;57.51;100967.48;104509;1093;77218;-57
2021/06/05 09:11:30;;;;;;;;;;;;;;;20.24;57.59;100962.95;104547;1097;78089;-57
2021/06/05 09:13:36;;;;;;;;;;;;;;;20.39;57.47;100966.90;104495;1093;77974;-57
2021/06/05 09:15:41;;;;;;;;;;;;;;;20.47;57.04;100969.28;104531;1093;77517;-64
2021/06/05 09:17:49;;;;;;;;;;;;;;;20.45;56.99;100963.20;104524;1092;77790;-57
2021/06/05 09:20:05;;;;;;;;;;;;;;;20.45;56.51;100965.95;104530;1093;77547;-65
2021/06/05 09:22:20;;;;;;;;;;;;;;;20.49;56.89;100967.12;104566;1093;77364;-56
2021/06/05 09:24:30;;;;;;;;;;;;;;;20.50;57.00;100963.31;104520;1097;78259;-57
2021/06/05 09:26:38;;;;;;;;;;;;;;;20.51;57.31;100964.99;104518;1093;77834;-56
2021/06/05 09:28:44;;;;;;;;;;;;;;;20.57;57.33;100957.70;104509;1093;78505;-56
2021/06/05 09:30:58;;;;;;;;;;;;;;;20.62;56.70;100965.20;104509;1096;77559;-55
2021/06/05 09:33:06;;;;;;;;;;;;;;;20.72;56.88;100960.77;104523;1093;77096;-66
2021/06/05 09:35:22;;;;;;;;;;;;;;;20.77;56.36;100952.63;104545;1097;77437;-58
2021/06/05 09:37:33;;;;;;;;;;;;;;;20.85;56.14;100959.67;104500;1092;77384;-63
2021/06/05 09:39:43;;;;;;;;;;;;;;;20.99;55.76;100955.55;104536;1093;77642;-58
2021/06/05 09:41:49;;;;;;;;;;;;;;;21.13;55.97;100952.31;104525;1093;77596;-58
2021/06/05 09:44:14;;;;;;;;;;;;;;;21.29;55.92;100947.92;104517;1092;77992;-58
2021/06/05 09:46:31;;;;;;;;;;;;;;;21.41;55.44;100953.38;104503;1092;77342;-57
2021/06/05 09:48:39;;;;;;;;;;;;;;;21.43;54.96;100954.80;104550;1093;77279;-59
2021/06/05 09:50:49;;;;;;;;;;;;;;;21.38;54.80;100946.46;104504;1093;77391;-58
2021/06/05 09:52:55;;;;;;;;;;;;;;;21.50;55.04;100954.66;104522;1093;78408;-58
2021/06/05 09:55:07;;;;;;;;;;;;;;;21.50;54.28;100946.41;104517;1092;77343;-61
2021/06/05 09:57:23;;;;;;;;;;;;;;;21.61;54.12;100940.00;104547;1093;78170;-62
2021/06/05 09:59:33;;;;;;;;;;;;;;;21.65;53.81;100939.25;104523;1093;77427;-57
2021/06/05 10:01:39;;;;;;;;;;;;;;;21.70;53.48;100931.08;104513;1092;76681;-57
2021/06/05 10:03:44;;;;;;;;;;;;;;;21.82;53.22;100927.41;104503;1092;78360;-59
2021/06/05 10:05:53;;;;;;;;;;;;;;;21.97;53.12;100931.30;104533;1093;78313;-58
2021/06/05 10:08:00;;;;;;;;;;;;;;;22.09;52.97;100922.92;104540;1093;77945;-58
2021/06/05 10:10:15;;;;;;;;;;;;;;;22.12;53.65;100923.27;104535;1093;76579;-57
2021/06/05 10:12:23;;;;;;;;;;;;;;;22.22;52.57;100920.65;104508;1093;78106;-57
2021/06/05 10:14:50;;;;;;;;;;;;;;;22.45;52.34;100919.60;104525;1093;76745;-57
2021/06/05 10:17:00;;;;;;;;;;;;;;;22.79;52.46;100929.46;104517;1093;77248;-58
2021/06/05 10:19:09;;;;;;;;;;;;;;;22.98;51.86;100913.42;104552;1093;77152;-58
2021/06/05 10:21:20;;;;;;;;;;;;;;;23.11;51.17;100912.17;104544;1093;77131;-57
2021/06/05 10:23:30;;;;;;;;;;;;;;;23.58;51.45;100910.47;104479;1093;77556;-57
2021/06/05 10:25:42;;;;;;;;;;;;;;;23.95;47.67;100902.23;104526;1093;78372;-57
2021/06/05 10:27:48;;;;;;;;;;;;;;;23.90;49.35;100896.64;104516;1093;76874;-58
2021/06/05 10:29:57;;;;;;;;;;;;;;;23.93;48.92;100901.64;104523;1092;78158;-58
2021/06/05 10:32:08;;;;;;;;;;;;;;;23.99;47.97;100901.42;104485;1093;77662;-56
2021/06/05 10:34:17;;;;;;;;;;;;;;;24.10;48.29;100890.47;104513;1093;77421;-58
2021/06/05 10:36:24;;;;;;;;;;;;;;;24.36;48.61;100892.30;104489;1093;78569;-57
2021/06/05 10:38:37;;;;;;;;;;;;;;;24.50;47.75;100890.72;104519;1093;76949;-58
2021/06/05 10:40:42;;;;;;;;;;;;;;;24.58;47.24;100895.73;104540;1093;77299;-59
2021/06/05 10:42:49;;;;;;;;;;;;;;;24.78;47.26;100890.26;104573;1093;77150;-60
2021/06/05 10:44:56;;;;;;;;;;;;;;;24.86;47.41;100898.06;104534;1093;76747;-58
2021/06/05 10:47:03;;;;;;;;;;;;;;;24.98;47.12;100887.60;104575;1093;76737;-57
2021/06/05 10:49:14;;;;;;;;;;;;;;;25.15;46.76;100888.20;104514;1093;77650;-56